Lamona, Washington
Current Conditions -  °F | °C
As of 5:52 PM on Wednesday 22 Oct 2014 (Local Time) from KMWH Reporting Station
Overcast Overcast  
Wind Chill: 56°   Ceiling: 9000
Heat Index: 56°   Visibility: 10mi
Dew Point: 52°   Wind: 14mph
Humidity: 87%   Direction: 140°SE
Pressure: 29.7"   Gusts: NA
Location:  47.36°N, 118.48°W
Report Text: KMWH 230052Z 14012KT 10SM SCT070 OVC090 13/11 A2970 RMK AO2 RAE20 SLP057 P0000 T01330111
Loading
Personal Weather Stations






























Interactive Weather Map
Tropical Storm Tracking
New forecast layout! Learn more

10-Day Weather Forecast

Advertisements
Track Severe Weather on mobile